createdAt,value
2018-09-03T00:00:43.035Z,3.67
2018-09-03T00:03:12.637Z,3.87
2018-09-03T00:05:42.915Z,3.90
2018-09-03T00:08:13.563Z,4.00
2018-09-03T00:10:43.208Z,3.70
2018-09-03T00:13:12.848Z,3.70
2018-09-03T00:15:42.807Z,4.20
2018-09-03T00:18:12.558Z,3.87
2018-09-03T00:20:43.672Z,4.50
2018-09-03T00:23:13.672Z,3.67
2018-09-03T00:25:43.104Z,4.23
2018-09-03T00:28:12.622Z,4.17
2018-09-03T00:30:42.136Z,3.97
2018-09-03T00:33:17.014Z,4.20
2018-09-03T00:35:51.858Z,4.07
2018-09-03T00:38:27.315Z,4.00
2018-09-03T00:41:02.135Z,4.33
2018-09-03T00:43:36.991Z,3.50
2018-09-03T00:46:11.666Z,4.27
2018-09-03T00:48:41.997Z,3.77
2018-09-03T00:51:12.321Z,4.10
2018-09-03T00:53:43.071Z,3.40
2018-09-03T00:58:51.347Z,4.33
2018-09-03T01:01:20.907Z,3.77
2018-09-03T01:03:50.408Z,4.00
2018-09-03T01:06:19.934Z,3.97
2018-09-03T01:08:49.393Z,3.60
2018-09-03T01:11:18.924Z,4.07
2018-09-03T01:13:48.510Z,4.10
2018-09-03T01:16:18.239Z,3.93
2018-09-03T01:18:47.771Z,3.97
2018-09-03T01:21:17.252Z,3.90
2018-09-03T01:23:46.840Z,4.27
2018-09-03T01:26:16.286Z,4.10
2018-09-03T01:28:45.875Z,3.83
2018-09-03T01:31:18.575Z,3.87
2018-09-03T01:33:51.013Z,3.40
2018-09-03T01:36:20.807Z,3.80
2018-09-03T01:38:50.238Z,3.90
2018-09-03T01:41:20.348Z,3.50
2018-09-03T01:43:49.887Z,3.90
2018-09-03T01:46:19.457Z,3.93
2018-09-03T01:48:48.930Z,4.10
2018-09-03T01:51:18.409Z,4.33
2018-09-03T01:53:47.861Z,4.60
2018-09-03T01:56:17.344Z,4.80
2018-09-03T01:58:46.817Z,4.33
2018-09-03T02:01:16.332Z,4.63
2018-09-03T02:03:45.807Z,4.33
2018-09-03T02:06:15.302Z,4.33
2018-09-03T02:08:44.807Z,4.37
2018-09-03T02:11:14.309Z,4.37
2018-09-03T02:13:43.860Z,4.77
2018-09-03T02:16:13.379Z,4.00
2018-09-03T02:18:42.922Z,4.80
2018-09-03T02:21:12.471Z,4.60
2018-09-03T02:23:42.005Z,4.57
2018-09-03T02:26:11.440Z,5.00
2018-09-03T02:28:40.910Z,4.30
2018-09-03T02:31:10.406Z,4.50
2018-09-03T02:33:40.013Z,4.43
2018-09-03T02:36:09.455Z,3.70
2018-09-03T02:38:38.963Z,4.00
2018-09-03T02:41:08.448Z,4.37
2018-09-03T02:43:37.932Z,4.60
2018-09-03T02:46:07.503Z,4.30
2018-09-03T02:48:36.916Z,4.13
2018-09-03T02:51:06.709Z,4.33
2018-09-03T02:53:36.355Z,4.63
2018-09-03T02:56:05.876Z,4.60
2018-09-03T02:58:35.427Z,4.53
2018-09-03T03:01:05.025Z,4.23
2018-09-03T03:03:34.528Z,4.13
2018-09-03T03:06:04.169Z,4.17
2018-09-03T03:08:33.702Z,4.40
2018-09-03T03:11:03.266Z,4.10
2018-09-03T03:13:32.797Z,4.07
2018-09-03T03:16:02.556Z,4.90
2018-09-03T03:18:32.298Z,4.43
2018-09-03T03:21:01.948Z,3.87
2018-09-03T03:23:32.249Z,4.67
2018-09-03T03:26:01.720Z,4.83
2018-09-03T03:28:32.231Z,4.47
2018-09-03T03:31:02.825Z,4.40
2018-09-03T03:33:32.516Z,4.30
2018-09-03T03:36:01.962Z,4.10
2018-09-03T03:38:31.450Z,3.50
2018-09-03T03:41:00.933Z,4.23
2018-09-03T03:43:30.638Z,4.63
2018-09-03T03:46:02.809Z,4.20
2018-09-03T03:48:32.476Z,4.20
2018-09-03T03:51:02.086Z,4.70
2018-09-03T03:53:32.529Z,4.23
2018-09-03T03:56:02.772Z,4.13
2018-09-03T03:58:32.371Z,4.00
2018-09-03T04:01:01.968Z,3.80
2018-09-03T04:03:33.274Z,3.53
2018-09-03T04:06:02.787Z,4.00
2018-09-03T04:08:32.309Z,3.67
2018-09-03T04:11:01.930Z,3.80
2018-09-03T04:13:32.685Z,4.00
2018-09-03T04:16:03.345Z,4.00
2018-09-03T04:18:32.957Z,4.00
2018-09-03T04:21:02.963Z,3.93
2018-09-03T04:23:32.435Z,4.27
2018-09-03T04:26:01.904Z,4.03
2018-09-03T04:28:31.656Z,4.00
2018-09-03T04:31:01.148Z,3.63
2018-09-03T04:33:30.657Z,3.60
2018-09-03T04:36:00.288Z,3.53
2018-09-03T04:38:29.760Z,3.50
2018-09-03T04:40:59.211Z,3.70
2018-09-03T04:43:28.709Z,3.90
2018-09-03T04:45:58.326Z,4.70
2018-09-03T04:48:27.819Z,4.07
2018-09-03T04:50:58.101Z,4.37
2018-09-03T04:53:27.578Z,4.33
2018-09-03T04:55:57.135Z,4.53
2018-09-03T04:58:26.615Z,4.73
2018-09-03T05:00:56.099Z,4.77
2018-09-03T05:03:25.639Z,4.10
2018-09-03T05:05:55.266Z,4.60
2018-09-03T05:08:24.753Z,3.77
2018-09-03T05:10:54.228Z,3.90
2018-09-03T05:13:23.692Z,4.43
2018-09-03T05:15:53.491Z,4.80
2018-09-03T05:18:23.001Z,5.07
2018-09-03T05:20:52.551Z,4.40
2018-09-03T05:23:22.235Z,4.60
2018-09-03T05:25:51.734Z,4.90
2018-09-03T05:28:21.218Z,4.90
2018-09-03T05:30:50.701Z,4.13
2018-09-03T05:33:20.213Z,4.83
2018-09-03T05:35:49.717Z,4.33
2018-09-03T05:38:19.219Z,4.77
2018-09-03T05:40:48.661Z,4.87
2018-09-03T05:43:18.171Z,4.53
2018-09-03T05:45:47.615Z,4.70
2018-09-03T05:48:17.082Z,4.10
2018-09-03T05:50:46.595Z,4.30
2018-09-03T05:53:16.336Z,3.60
2018-09-03T05:55:45.860Z,4.20
2018-09-03T05:58:15.307Z,4.20
2018-09-03T06:00:44.857Z,4.13
2018-09-03T06:03:14.340Z,4.10
2018-09-03T06:05:43.835Z,4.00
2018-09-03T06:08:13.344Z,4.13
2018-09-03T06:10:42.873Z,3.90
2018-09-03T06:13:12.356Z,4.00
2018-09-03T06:15:41.864Z,4.00
2018-09-03T06:18:11.386Z,3.80
2018-09-03T06:20:40.827Z,4.50
2018-09-03T06:23:10.299Z,3.80
2018-09-03T06:25:39.784Z,4.13
2018-09-03T06:28:09.355Z,4.50
2018-09-03T06:30:38.896Z,4.20
2018-09-03T06:33:08.357Z,3.93
2018-09-03T06:35:37.790Z,3.80
2018-09-03T06:38:07.509Z,4.10
2018-09-03T06:40:37.286Z,4.10
2018-09-03T06:43:06.781Z,4.20
2018-09-03T06:45:36.343Z,3.40
2018-09-03T06:48:05.844Z,3.83
2018-09-03T06:50:35.285Z,3.67
2018-09-03T06:53:05.138Z,3.23
2018-09-03T06:55:34.655Z,2.80
2018-09-03T06:58:04.108Z,3.50
2018-09-03T07:00:33.642Z,3.27
2018-09-03T07:03:03.098Z,3.50
2018-09-03T07:05:32.891Z,3.17
2018-09-03T07:08:02.400Z,2.97
2018-09-03T07:10:31.830Z,3.30
2018-09-03T07:13:05.227Z,3.43
2018-09-03T07:15:35.260Z,3.27
2018-09-03T07:18:05.373Z,3.43
2018-09-03T07:20:35.298Z,3.60
2018-09-03T07:23:04.928Z,3.30
2018-09-03T07:25:34.720Z,3.30
2018-09-03T07:28:04.245Z,3.03
2018-09-03T07:30:33.714Z,3.23
2018-09-03T07:33:03.502Z,3.57
2018-09-03T07:35:33.291Z,3.50
2018-09-03T07:38:02.706Z,3.27
2018-09-03T07:40:32.188Z,3.40
2018-09-03T07:43:01.731Z,2.80
2018-09-03T07:45:31.255Z,3.03
2018-09-03T07:48:00.724Z,2.67
2018-09-03T07:50:30.228Z,2.80
2018-09-03T07:52:59.708Z,3.20
2018-09-03T07:55:29.196Z,2.70
2018-09-03T07:57:58.759Z,2.40
2018-09-03T08:00:28.234Z,2.63
2018-09-03T08:02:57.716Z,2.50
2018-09-03T08:05:27.236Z,2.63
2018-09-03T08:07:56.707Z,2.87
2018-09-03T08:10:26.166Z,2.80
2018-09-03T08:12:55.711Z,2.70
2018-09-03T08:15:25.166Z,2.77
2018-09-03T08:17:54.707Z,2.30
2018-09-03T08:20:24.221Z,2.80
2018-09-03T08:22:53.690Z,2.83
2018-09-03T08:25:23.265Z,2.47
2018-09-03T08:27:53.102Z,2.17
2018-09-03T08:30:22.595Z,2.40
2018-09-03T08:32:52.109Z,2.60
2018-09-03T08:35:21.627Z,2.77
2018-09-03T08:37:51.109Z,2.67
2018-09-03T08:40:20.725Z,2.50
2018-09-03T08:42:50.201Z,2.70
2018-09-03T08:45:19.638Z,2.93
2018-09-03T08:47:49.089Z,2.53
2018-09-03T08:50:18.611Z,2.60
2018-09-03T08:52:48.096Z,2.57
2018-09-03T08:55:17.617Z,2.40
2018-09-03T08:57:47.177Z,2.37
2018-09-03T09:00:16.747Z,2.40
2018-09-03T09:02:46.348Z,2.70
2018-09-03T09:05:15.872Z,2.70
2018-09-03T09:07:45.817Z,2.60
2018-09-03T09:10:15.391Z,2.77
2018-09-03T09:12:45.008Z,2.33
2018-09-03T09:15:14.500Z,2.40
2018-09-03T09:17:44.083Z,2.83
2018-09-03T09:20:13.588Z,2.60
2018-09-03T09:22:43.102Z,2.70
2018-09-03T09:25:12.547Z,2.30
2018-09-03T09:27:42.077Z,2.20
2018-09-03T09:30:11.547Z,1.97
2018-09-03T09:32:41.035Z,2.43
2018-09-03T09:35:10.573Z,2.23
2018-09-03T09:37:40.107Z,2.20
2018-09-03T09:40:09.568Z,2.40
2018-09-03T09:42:40.489Z,2.10
2018-09-03T09:45:10.642Z,2.00
2018-09-03T09:47:40.155Z,2.30
2018-09-03T09:50:09.615Z,2.03
2018-09-03T09:52:39.080Z,2.13
2018-09-03T09:55:08.630Z,2.20
2018-09-03T09:57:38.118Z,2.40
2018-09-03T10:00:09.912Z,2.10
2018-09-03T10:02:40.509Z,2.50
2018-09-03T10:05:10.003Z,2.13
2018-09-03T10:07:39.492Z,2.20
2018-09-03T10:10:08.953Z,2.13
2018-09-03T10:12:38.437Z,2.07
2018-09-03T10:15:07.917Z,2.30
2018-09-03T10:17:37.466Z,2.10
2018-09-03T10:20:07.256Z,2.00
2018-09-03T10:22:36.710Z,2.13
2018-09-03T10:25:06.199Z,2.00
2018-09-03T10:27:35.703Z,2.10
2018-09-03T10:30:05.289Z,2.27
2018-09-03T10:32:34.819Z,2.00
2018-09-03T10:35:04.357Z,1.90
2018-09-03T10:37:33.848Z,2.17
2018-09-03T10:40:03.388Z,2.13
2018-09-03T10:42:32.897Z,2.30
2018-09-03T10:45:02.357Z,2.00
2018-09-03T10:47:31.932Z,2.50
2018-09-03T10:50:01.421Z,2.10
2018-09-03T10:52:30.906Z,2.00
2018-09-03T10:55:00.407Z,2.33
2018-09-03T10:57:29.932Z,1.93
2018-09-03T10:59:59.404Z,2.10
2018-09-03T11:02:28.908Z,2.03
2018-09-03T11:04:58.409Z,2.10
2018-09-03T11:07:27.906Z,2.00
2018-09-03T11:09:57.412Z,2.20
2018-09-03T11:12:26.924Z,2.27
2018-09-03T11:14:56.438Z,2.03
2018-09-03T11:17:25.976Z,2.03
2018-09-03T11:19:57.858Z,2.20
2018-09-03T11:22:27.495Z,1.93
2018-09-03T11:24:57.923Z,1.97
2018-09-03T11:27:27.528Z,1.90
2018-09-03T11:29:57.017Z,2.10
2018-09-03T11:32:26.550Z,2.20
2018-09-03T11:34:56.130Z,1.70
2018-09-03T11:37:25.597Z,2.27
2018-09-03T11:39:55.059Z,1.83
2018-09-03T11:42:24.529Z,2.33
2018-09-03T11:44:54.009Z,1.80
2018-09-03T11:47:23.528Z,2.17
2018-09-03T11:49:53.062Z,2.00
2018-09-03T11:52:22.600Z,2.40
2018-09-03T11:54:52.160Z,2.00
2018-09-03T11:57:21.726Z,2.40
2018-09-03T11:59:51.255Z,1.90
2018-09-03T12:02:20.823Z,1.90
2018-09-03T12:04:50.358Z,2.33
2018-09-03T12:07:20.202Z,2.00
2018-09-03T12:09:49.693Z,2.00
2018-09-03T12:12:19.164Z,1.90
2018-09-03T12:14:51.261Z,2.40
2018-09-03T12:17:20.935Z,1.90
2018-09-03T12:19:50.419Z,1.80
2018-09-03T12:22:19.926Z,2.10
2018-09-03T12:24:49.434Z,2.13
2018-09-03T12:27:18.930Z,1.93
2018-09-03T12:29:48.423Z,1.90
2018-09-03T12:32:18.099Z,2.10
2018-09-03T12:34:47.834Z,2.00
2018-09-03T12:37:17.375Z,2.10
2018-09-03T12:39:46.917Z,2.10
2018-09-03T12:42:16.477Z,1.97
2018-09-03T12:44:45.993Z,2.07
2018-09-03T12:47:15.556Z,2.13
2018-09-03T12:49:45.327Z,2.20
2018-09-03T12:52:14.836Z,2.20
2018-09-03T12:54:44.383Z,2.10
2018-09-03T12:57:14.006Z,1.83
2018-09-03T12:59:43.503Z,2.00
2018-09-03T13:02:12.985Z,2.10
2018-09-03T13:04:42.516Z,2.07
2018-09-03T13:07:12.005Z,1.67
2018-09-03T13:09:41.535Z,2.03
2018-09-03T13:12:11.385Z,2.13
2018-09-03T13:14:40.868Z,2.23
2018-09-03T13:17:10.427Z,1.90
2018-09-03T13:19:40.029Z,2.07
2018-09-03T13:22:09.548Z,2.00
2018-09-03T13:24:39.081Z,2.00
2018-09-03T13:27:08.673Z,2.00
2018-09-03T13:29:38.264Z,2.20
2018-09-03T13:32:07.785Z,2.30
2018-09-03T13:34:37.320Z,1.97
2018-09-03T13:37:06.802Z,1.93
2018-09-03T13:39:36.294Z,1.97
2018-09-03T13:42:05.838Z,2.03
2018-09-03T13:44:35.318Z,2.03
2018-09-03T13:47:04.851Z,2.17
2018-09-03T13:49:34.349Z,2.07
2018-09-03T13:52:03.861Z,2.20
2018-09-03T13:54:33.401Z,1.80
2018-09-03T13:57:02.884Z,1.70
2018-09-03T13:59:32.397Z,2.00
2018-09-03T14:02:01.941Z,1.83
2018-09-03T14:04:31.441Z,2.03
2018-09-03T14:07:01.465Z,1.87
2018-09-03T14:09:31.754Z,2.10
2018-09-03T14:12:01.324Z,2.00
2018-09-03T14:14:30.807Z,1.83
2018-09-03T14:17:00.321Z,1.90
2018-09-03T14:19:29.885Z,2.20
2018-09-03T14:21:59.413Z,1.87
2018-09-03T14:24:28.985Z,2.00
2018-09-03T14:26:58.576Z,2.00
2018-09-03T14:29:28.386Z,1.67
2018-09-03T14:31:57.934Z,1.70
2018-09-03T14:34:27.402Z,1.90
2018-09-03T14:36:56.896Z,1.90
2018-09-03T14:39:26.460Z,1.90
2018-09-03T14:41:55.948Z,1.97
2018-09-03T14:44:25.466Z,1.80
2018-09-03T14:46:55.005Z,1.67
2018-09-03T14:49:24.558Z,2.10
2018-09-03T14:51:54.036Z,2.00
2018-09-03T14:54:23.537Z,1.70
2018-09-03T14:56:53.096Z,1.70
2018-09-03T14:59:22.574Z,2.07
2018-09-03T15:01:52.436Z,1.83
2018-09-03T15:04:22.051Z,1.73
2018-09-03T15:06:51.498Z,1.90
2018-09-03T15:09:20.997Z,2.00
2018-09-03T15:11:50.497Z,1.70
2018-09-03T15:14:20.046Z,1.63
2018-09-03T15:16:49.596Z,1.80
2018-09-03T15:19:19.108Z,1.80
2018-09-03T15:21:48.630Z,1.87
2018-09-03T15:24:18.126Z,1.73
2018-09-03T15:26:47.610Z,1.70
2018-09-03T15:29:17.162Z,1.70
2018-09-03T15:31:46.728Z,1.77
2018-09-03T15:34:16.344Z,1.80
2018-09-03T15:36:45.849Z,1.70
2018-09-03T15:39:15.368Z,1.73
2018-09-03T15:41:44.860Z,1.93
2018-09-03T15:44:14.323Z,1.80
2018-09-03T15:46:43.933Z,1.67
2018-09-03T15:49:13.500Z,1.60
2018-09-03T15:51:43.042Z,1.70
2018-09-03T15:54:12.599Z,1.60
2018-09-03T15:56:42.312Z,1.60
2018-09-03T15:59:11.910Z,1.60
2018-09-03T16:01:41.491Z,1.70
2018-09-03T16:04:11.072Z,1.70
2018-09-03T16:06:40.735Z,1.67
2018-09-03T16:09:11.145Z,1.83
2018-09-03T16:11:40.864Z,1.70
2018-09-03T16:14:10.490Z,1.60
2018-09-03T16:16:40.253Z,1.60
2018-09-03T16:19:09.889Z,1.77
2018-09-03T16:21:39.395Z,1.67
2018-09-03T16:24:08.874Z,1.70
2018-09-03T16:26:38.328Z,1.80
2018-09-03T16:29:08.123Z,1.90
2018-09-03T16:31:37.616Z,1.60
2018-09-03T16:34:07.186Z,1.80
2018-09-03T16:36:36.747Z,1.97
2018-09-03T16:39:07.142Z,1.83
2018-09-03T16:41:36.623Z,1.80
2018-09-03T16:44:06.224Z,1.83
2018-09-03T16:46:35.870Z,1.90
2018-09-03T16:49:05.688Z,1.90
2018-09-03T16:51:35.245Z,1.80
2018-09-03T16:54:04.840Z,1.70
2018-09-03T16:56:34.351Z,1.80
2018-09-03T16:59:03.950Z,1.87
2018-09-03T17:01:33.818Z,1.90
2018-09-03T17:04:03.128Z,1.93
2018-09-03T17:06:32.738Z,1.70
2018-09-03T17:09:02.296Z,1.87
2018-09-03T17:11:31.861Z,1.80
2018-09-03T17:14:01.406Z,1.97
2018-09-03T17:16:31.063Z,1.70
2018-09-03T17:19:00.745Z,2.00
2018-09-03T17:21:30.364Z,1.87
2018-09-03T17:23:59.964Z,2.13
2018-09-03T17:26:29.549Z,1.80
2018-09-03T17:28:59.047Z,1.73
2018-09-03T17:31:28.679Z,2.00
2018-09-03T17:33:58.152Z,1.93
2018-09-03T17:36:27.633Z,1.90
2018-09-03T17:38:57.117Z,1.87
2018-09-03T17:41:26.721Z,2.13
2018-09-03T17:43:56.335Z,2.00
2018-09-03T17:46:25.827Z,2.10
2018-09-03T17:48:55.418Z,2.10
2018-09-03T17:51:24.986Z,2.17
2018-09-03T17:53:54.498Z,2.17
2018-09-03T17:56:24.017Z,2.20
2018-09-03T17:58:53.584Z,2.33
2018-09-03T18:01:23.202Z,2.20
2018-09-03T18:03:52.735Z,2.10
2018-09-03T18:06:22.283Z,2.17
2018-09-03T18:08:51.881Z,2.03
2018-09-03T18:11:21.402Z,2.33
2018-09-03T18:13:50.891Z,2.03
2018-09-03T18:16:20.357Z,2.20
2018-09-03T18:18:50.236Z,2.30
2018-09-03T18:21:19.789Z,2.30
2018-09-03T18:23:49.302Z,2.57
2018-09-03T18:26:18.879Z,2.27
2018-09-03T18:28:48.476Z,2.00
2018-09-03T18:31:18.037Z,2.30
2018-09-03T18:33:47.576Z,2.30
2018-09-03T18:36:17.061Z,2.10
2018-09-03T18:38:46.537Z,2.33
2018-09-03T18:41:16.339Z,2.60
2018-09-03T18:43:45.864Z,2.80
2018-09-03T18:46:15.362Z,2.27
2018-09-03T18:48:44.884Z,2.20
2018-09-03T18:51:14.514Z,2.50
2018-09-03T18:53:44.103Z,2.50
2018-09-03T18:56:13.685Z,2.40
2018-09-03T18:58:43.198Z,2.40
2018-09-03T19:01:12.759Z,2.07
2018-09-03T19:03:42.304Z,2.40
2018-09-03T19:06:12.078Z,2.30
2018-09-03T19:08:41.525Z,2.57
2018-09-03T19:11:11.141Z,2.60
2018-09-03T19:13:40.627Z,2.20
2018-09-03T19:16:10.172Z,2.53
2018-09-03T19:18:39.757Z,2.47
2018-09-03T19:21:09.414Z,2.40
2018-09-03T19:23:38.972Z,2.40
2018-09-03T19:26:08.588Z,2.20
2018-09-03T19:28:38.204Z,2.60
2018-09-03T19:31:07.804Z,2.60
2018-09-03T19:33:37.441Z,2.50
2018-09-03T19:36:07.021Z,2.70
2018-09-03T19:38:36.539Z,2.87
2018-09-03T19:41:06.148Z,2.43
2018-09-03T19:43:35.655Z,2.50
2018-09-03T19:46:05.168Z,2.47
2018-09-03T19:48:34.799Z,2.40
2018-09-03T19:51:04.342Z,2.57
2018-09-03T19:53:33.897Z,2.83
2018-09-03T19:56:03.368Z,2.60
2018-09-03T19:58:32.992Z,2.60
2018-09-03T20:01:02.548Z,2.50
2018-09-03T20:03:32.066Z,2.50
2018-09-03T20:06:02.081Z,2.60
2018-09-03T20:08:32.056Z,2.40
2018-09-03T20:11:01.619Z,2.67
2018-09-03T20:13:31.611Z,2.63
2018-09-03T20:16:01.159Z,2.87
2018-09-03T20:18:30.682Z,2.63
2018-09-03T20:21:00.288Z,3.30
2018-09-03T20:23:29.914Z,2.80
2018-09-03T20:25:59.329Z,2.70
2018-09-03T20:28:28.916Z,2.70
2018-09-03T20:30:58.405Z,2.50
2018-09-03T20:33:27.947Z,2.23
2018-09-03T20:35:57.434Z,2.30
2018-09-03T20:38:26.857Z,2.67
2018-09-03T20:40:56.357Z,2.37
2018-09-03T20:43:25.823Z,2.43
2018-09-03T20:45:55.295Z,2.70
2018-09-03T20:48:24.879Z,2.20
2018-09-03T20:50:54.380Z,2.60
2018-09-03T20:53:23.872Z,2.57
2018-09-03T20:55:53.428Z,2.57
2018-09-03T20:58:22.939Z,3.00
2018-09-03T21:00:52.492Z,2.57
2018-09-03T21:03:22.000Z,2.70
2018-09-03T21:05:51.554Z,2.80
2018-09-03T21:08:21.273Z,2.70
2018-09-03T21:10:50.809Z,2.80
2018-09-03T21:13:20.429Z,3.10
2018-09-03T21:15:49.915Z,3.27
2018-09-03T21:18:20.443Z,2.93
2018-09-03T21:20:50.468Z,2.80
2018-09-03T21:23:20.669Z,3.00
2018-09-03T21:25:50.925Z,2.70
2018-09-03T21:28:22.603Z,2.63
2018-09-03T21:30:52.444Z,3.00
2018-09-03T21:33:22.736Z,2.77
2018-09-03T21:35:53.360Z,2.90
2018-09-03T21:38:24.482Z,2.80
2018-09-03T21:40:54.692Z,2.87
2018-09-03T21:43:24.256Z,2.63
2018-09-03T21:45:54.771Z,3.07
2018-09-03T21:48:25.277Z,2.93
2018-09-03T21:50:54.979Z,2.73
2018-09-03T21:53:24.756Z,2.83
2018-09-03T21:55:56.417Z,2.83
2018-09-03T21:58:26.102Z,2.97
2018-09-03T22:00:55.694Z,2.80
2018-09-03T22:03:25.594Z,2.87
2018-09-03T22:05:55.547Z,3.10
2018-09-03T22:08:25.994Z,2.70
2018-09-03T22:10:55.607Z,2.53
2018-09-03T22:13:26.205Z,2.47
2018-09-03T22:15:55.942Z,2.70
2018-09-03T22:18:26.212Z,3.10
2018-09-03T22:20:55.933Z,2.90
2018-09-03T22:23:25.835Z,2.87
2018-09-03T22:25:56.137Z,2.90
2018-09-03T22:28:26.202Z,2.83
2018-09-03T22:30:56.729Z,3.23
2018-09-03T22:33:26.282Z,2.90
2018-09-03T22:35:56.444Z,2.97
2018-09-03T22:38:26.966Z,2.83
2018-09-03T22:40:57.784Z,2.83
2018-09-03T22:43:28.291Z,2.70
2018-09-03T22:45:59.297Z,2.90
2018-09-03T22:48:28.948Z,2.90
2018-09-03T22:50:58.610Z,2.70
2018-09-03T22:53:28.130Z,2.70
2018-09-03T22:55:57.651Z,2.50
2018-09-03T22:58:27.334Z,2.53
2018-09-03T23:00:56.889Z,2.83
2018-09-03T23:03:26.560Z,2.60
2018-09-03T23:05:56.686Z,2.80
2018-09-03T23:08:26.472Z,2.80
2018-09-03T23:10:56.686Z,2.80
2018-09-03T23:13:26.542Z,2.80
2018-09-03T23:15:56.130Z,2.77
2018-09-03T23:18:25.918Z,2.67
2018-09-03T23:20:56.222Z,2.77
2018-09-03T23:23:25.931Z,2.60
2018-09-03T23:25:55.972Z,2.63
2018-09-03T23:28:26.702Z,2.90
2018-09-03T23:30:56.311Z,3.03
2018-09-03T23:33:27.458Z,2.70
2018-09-03T23:35:57.655Z,3.13
2018-09-03T23:38:28.244Z,2.80
2018-09-03T23:40:58.650Z,2.60
2018-09-03T23:43:28.261Z,2.60
2018-09-03T23:45:57.785Z,3.07
2018-09-03T23:48:28.047Z,3.13
2018-09-03T23:50:58.207Z,2.70
2018-09-03T23:53:27.967Z,2.50
2018-09-03T23:55:58.234Z,2.53
2018-09-03T23:58:27.718Z,2.80
